Time;durP1;ratioP1;P1;durP2;ratioP2;P2;SDS_P1;SDS_P2;PMS_P1;PMS_P2;Temp;Humidity;BMP_temperature;BMP_pressure;BME280_temperature;BME280_humidity;BME280_pressure;Samples;Min_cycle;Max_cycle;Signal;HPM_P1;HPM_P2
2023/03/18 00:01:15;;;;;;;6.03;2.17;;;10.60;72.30;;;;;;5050258;28;20061;-78
2023/03/18 00:03:41;;;;;;;7.43;2.22;;;10.60;72.30;;;;;;5048411;28;20525;-78
2023/03/18 00:06:12;;;;;;;3.75;1.95;;;10.50;72.60;;;;;;5044925;28;20021;-77
2023/03/18 00:08:39;;;;;;;6.78;2.20;;;10.50;72.80;;;;;;5043822;28;20504;-76
2023/03/18 00:11:06;;;;;;;4.65;1.98;;;10.50;73.10;;;;;;5046839;28;20021;-73
2023/03/18 00:13:33;;;;;;;6.75;2.20;;;10.50;72.90;;;;;;5045310;28;20120;-77
2023/03/18 00:16:00;;;;;;;4.05;1.92;;;10.60;72.80;;;;;;5045803;28;20029;-77
2023/03/18 00:18:26;;;;;;;6.53;2.08;;;10.60;72.60;;;;;;5045969;28;20040;-77
2023/03/18 00:20:52;;;;;;;4.88;1.95;;;10.50;73.00;;;;;;5034552;28;20478;-77
2023/03/18 00:23:17;;;;;;;3.35;1.75;;;10.60;72.90;;;;;;5040804;28;20055;-77
2023/03/18 00:25:46;;;;;;;4.13;2.08;;;10.50;73.20;;;;;;5049321;28;20111;-78
2023/03/18 00:28:12;;;;;;;4.60;2.25;;;10.50;73.30;;;;;;5045573;28;20041;-77
2023/03/18 00:30:40;;;;;;;3.20;1.60;;;10.50;73.40;;;;;;5043761;28;20040;-77
2023/03/18 00:33:06;;;;;;;5.63;1.92;;;10.50;73.80;;;;;;5047619;28;20449;-77
2023/03/18 00:35:32;;;;;;;6.22;2.30;;;10.40;73.70;;;;;;5041865;28;20042;-76
2023/03/18 00:37:59;;;;;;;4.82;2.30;;;10.50;73.80;;;;;;5042271;28;20025;-76
2023/03/18 00:40:29;;;;;;;4.32;1.98;;;10.50;73.40;;;;;;5037293;28;20355;-75
2023/03/18 00:43:06;;;;;;;6.13;2.20;;;10.50;73.40;;;;;;5040635;28;20425;-78
2023/03/18 00:45:35;;;;;;;4.00;1.88;;;10.50;73.50;;;;;;5047078;28;20295;-78
2023/03/18 00:48:00;;;;;;;7.65;2.47;;;10.60;73.40;;;;;;5045766;28;20026;-75
2023/03/18 00:50:26;;;;;;;8.15;2.40;;;10.50;73.50;;;;;;5047858;28;20086;-77
2023/03/18 00:52:52;;;;;;;4.72;1.92;;;10.50;73.60;;;;;;5042274;28;20408;-78
2023/03/18 00:55:17;;;;;;;4.07;1.90;;;10.60;73.50;;;;;;5050980;28;20104;-76
2023/03/18 00:57:43;;;;;;;4.25;1.88;;;10.50;73.60;;;;;;5046943;28;20090;-77
2023/03/18 01:00:10;;;;;;;5.50;2.22;;;10.50;73.60;;;;;;5047870;28;20381;-76
2023/03/18 01:02:35;;;;;;;4.32;2.22;;;10.60;73.20;;;;;;5051145;28;20531;-77
2023/03/18 01:05:01;;;;;;;5.28;2.08;;;10.70;73.00;;;;;;5046615;28;20037;-75
2023/03/18 01:07:26;;;;;;;5.50;2.38;;;10.60;73.40;;;;;;5045690;28;20064;-77
2023/03/18 01:09:53;;;;;;;4.93;2.20;;;10.60;73.30;;;;;;5042565;28;20024;-76
2023/03/18 01:12:19;;;;;;;4.38;2.05;;;10.60;73.30;;;;;;5047273;28;20128;-78
2023/03/18 01:14:44;;;;;;;6.85;2.40;;;10.80;72.60;;;;;;5048216;28;20434;-77
2023/03/18 01:17:10;;;;;;;5.38;2.30;;;10.70;72.70;;;;;;5049233;28;20052;-76
2023/03/18 01:19:36;;;;;;;4.00;2.30;;;10.70;73.00;;;;;;5052127;28;20036;-77
2023/03/18 01:22:02;;;;;;;7.30;2.40;;;10.70;73.00;;;;;;5048127;28;20041;-77
2023/03/18 01:24:28;;;;;;;4.22;2.30;;;10.70;73.30;;;;;;5043635;28;20017;-78
2023/03/18 01:26:54;;;;;;;4.95;2.17;;;10.60;73.50;;;;;;5053613;28;20044;-77
2023/03/18 01:29:21;;;;;;;4.78;2.25;;;10.60;73.60;;;;;;5051365;28;20068;-77
2023/03/18 01:31:47;;;;;;;6.70;2.38;;;10.50;73.80;;;;;;5041520;28;20029;-78
2023/03/18 01:34:13;;;;;;;6.43;2.13;;;10.60;73.90;;;;;;5047992;28;20493;-76
2023/03/18 01:36:39;;;;;;;4.78;2.30;;;10.60;73.80;;;;;;5040741;28;20037;-78
2023/03/18 01:39:05;;;;;;;5.38;2.33;;;10.50;74.40;;;;;;5049621;28;20037;-78
2023/03/18 01:41:31;;;;;;;7.38;2.20;;;10.50;75.10;;;;;;5051989;28;20032;-73
2023/03/18 01:43:57;;;;;;;6.55;2.80;;;10.50;75.40;;;;;;5048031;28;20033;-77
2023/03/18 01:46:36;;;;;;;5.38;2.25;;;10.50;75.70;;;;;;5049682;28;20051;-77
2023/03/18 01:49:11;;;;;;;5.00;2.40;;;10.40;76.30;;;;;;5049917;28;20036;-77
2023/03/18 01:51:39;;;;;;;10.73;2.58;;;10.40;76.20;;;;;;5048750;28;20346;-78
2023/03/18 01:54:06;;;;;;;5.63;2.47;;;10.30;76.30;;;;;;5050814;28;20091;-78
2023/03/18 01:56:35;;;;;;;6.72;2.38;;;10.30;76.30;;;;;;5044990;28;20122;-76
2023/03/18 01:59:02;;;;;;;4.95;2.20;;;10.30;76.20;;;;;;5053700;28;20033;-76
2023/03/18 02:01:35;;;;;;;9.35;2.30;;;10.40;76.00;;;;;;5049727;28;20032;-77
2023/03/18 02:04:03;;;;;;;7.43;2.22;;;10.30;76.80;;;;;;5050697;28;20381;-77
2023/03/18 02:06:28;;;;;;;5.45;2.55;;;10.30;77.40;;;;;;5047356;28;20032;-76
2023/03/18 02:08:54;;;;;;;5.47;2.45;;;10.20;78.40;;;;;;5050669;28;20071;-78
2023/03/18 02:11:22;;;;;;;7.00;2.55;;;10.10;79.40;;;;;;5048527;28;20487;-77
2023/03/18 02:13:48;;;;;;;6.85;2.90;;;10.10;80.20;;;;;;5050052;28;20350;-78
2023/03/18 02:16:24;;;;;;;5.00;2.80;;;9.90;81.00;;;;;;5044066;28;20041;-74
2023/03/18 02:18:55;;;;;;;6.75;2.90;;;9.90;81.30;;;;;;5036867;28;20036;-78
2023/03/18 02:21:53;;;;;;;5.35;2.50;;;9.80;82.40;;;;;;5046656;28;20182;-75
2023/03/18 02:25:15;;;;;;;4.55;2.42;;;9.80;82.60;;;;;;5046620;28;20084;-77
2023/03/18 02:27:47;;;;;;;8.02;2.90;;;9.70;82.80;;;;;;5021498;28;20046;-76
2023/03/18 02:30:18;;;;;;;6.30;2.75;;;9.60;83.50;;;;;;5041543;28;20482;-77
2023/03/18 02:32:45;;;;;;;5.35;2.70;;;9.60;84.20;;;;;;5049543;28;20432;-77
2023/03/18 02:35:11;;;;;;;4.78;2.75;;;9.60;84.50;;;;;;5044617;28;20091;-77
2023/03/18 02:37:37;;;;;;;10.02;3.13;;;9.50;85.30;;;;;;5040424;28;20053;-77
2023/03/18 02:40:20;;;;;;;9.90;3.30;;;9.40;86.30;;;;;;5045485;28;20072;-77
2023/03/18 02:42:47;;;;;;;6.13;3.13;;;9.40;86.70;;;;;;5048655;28;20378;-77
2023/03/18 02:45:37;;;;;;;9.55;3.70;;;9.30;87.20;;;;;;5048137;28;20044;-75
2023/03/18 02:48:06;;;;;;;7.22;2.90;;;9.30;87.80;;;;;;5043353;28;20029;-77
2023/03/18 02:50:33;;;;;;;10.82;3.17;;;9.20;88.40;;;;;;5046930;28;20079;-77
2023/03/18 02:53:00;;;;;;;6.50;3.38;;;9.20;88.60;;;;;;5049074;28;20032;-76
2023/03/18 02:55:26;;;;;;;8.32;3.55;;;9.10;89.00;;;;;;5046165;28;21458;-77
2023/03/18 02:57:52;;;;;;;8.68;3.63;;;9.10;89.30;;;;;;5046345;28;20473;-76
2023/03/18 03:00:17;;;;;;;6.78;3.70;;;9.10;89.60;;;;;;5046822;28;20424;-77
2023/03/18 03:02:43;;;;;;;9.23;3.72;;;9.10;90.40;;;;;;5046089;28;20112;-76
2023/03/18 03:05:09;;;;;;;7.65;3.75;;;9.10;90.40;;;;;;5047408;28;20033;-76
2023/03/18 03:07:35;;;;;;;7.80;3.58;;;9.00;90.60;;;;;;5038956;28;20098;-76
2023/03/18 03:10:03;;;;;;;8.45;3.75;;;9.00;90.90;;;;;;5052564;28;20048;-76
2023/03/18 03:12:29;;;;;;;7.28;3.83;;;9.00;91.30;;;;;;5046086;28;20033;-77
2023/03/18 03:14:55;;;;;;;8.98;3.95;;;9.00;91.50;;;;;;5050173;28;20114;-77
2023/03/18 03:17:21;;;;;;;9.05;4.13;;;8.90;91.60;;;;;;5047701;28;20458;-77
2023/03/18 03:19:47;;;;;;;10.75;4.30;;;8.90;91.80;;;;;;5047852;28;20377;-76
2023/03/18 03:22:12;;;;;;;8.20;4.03;;;8.90;92.00;;;;;;5046591;28;20033;-76
2023/03/18 03:24:38;;;;;;;8.98;4.32;;;8.90;92.30;;;;;;5049280;28;20029;-77
2023/03/18 03:27:05;;;;;;;9.35;4.38;;;8.90;92.40;;;;;;5051104;28;20059;-77
2023/03/18 03:29:31;;;;;;;8.55;4.85;;;9.00;92.40;;;;;;5048873;28;20116;-75
2023/03/18 03:31:56;;;;;;;8.60;4.78;;;8.90;92.50;;;;;;5049591;28;20075;-77
2023/03/18 03:34:22;;;;;;;10.18;5.28;;;8.90;92.70;;;;;;5041009;28;20474;-75
2023/03/18 03:36:47;;;;;;;9.10;5.28;;;8.90;92.90;;;;;;5043391;28;20040;-73
2023/03/18 03:39:13;;;;;;;9.15;4.82;;;9.00;92.80;;;;;;5039735;28;20111;-76
2023/03/18 03:41:39;;;;;;;10.45;5.00;;;8.90;93.10;;;;;;5044411;28;20453;-76
2023/03/18 03:44:05;;;;;;;12.85;5.78;;;8.90;93.40;;;;;;5046276;28;20037;-76
2023/03/18 03:46:31;;;;;;;8.50;4.88;;;8.90;93.70;;;;;;5048339;28;20045;-77
2023/03/18 03:48:56;;;;;;;9.50;5.25;;;8.90;93.80;;;;;;5048451;28;20095;-77
2023/03/18 03:51:22;;;;;;;10.23;5.25;;;8.90;94.00;;;;;;5046739;28;20400;-73
2023/03/18 03:53:49;;;;;;;12.25;5.72;;;8.80;94.20;;;;;;5049079;28;20043;-76
2023/03/18 03:56:15;;;;;;;13.45;6.00;;;8.80;94.30;;;;;;5049908;28;20024;-75
2023/03/18 03:58:40;;;;;;;11.63;5.68;;;8.80;94.60;;;;;;5050202;28;20563;-76
2023/03/18 04:01:07;;;;;;;11.50;6.60;;;8.80;94.70;;;;;;5049367;28;20056;-74
2023/03/18 04:03:32;;;;;;;15.32;5.93;;;8.80;94.80;;;;;;5041084;28;20060;-77
2023/03/18 04:05:58;;;;;;;12.27;6.10;;;8.80;95.00;;;;;;5036961;28;20473;-78
2023/03/18 04:08:24;;;;;;;14.40;7.35;;;8.80;95.20;;;;;;5044168;28;20099;-78
2023/03/18 04:10:49;;;;;;;15.00;7.43;;;8.80;95.40;;;;;;5048767;28;20104;-78
2023/03/18 04:13:15;;;;;;;13.38;7.15;;;8.80;95.40;;;;;;5047224;28;20051;-77
2023/03/18 04:15:40;;;;;;;12.77;6.65;;;8.70;95.60;;;;;;5042740;28;20458;-77
2023/03/18 04:18:06;;;;;;;13.00;8.07;;;8.70;95.60;;;;;;5051768;28;20610;-78
2023/03/18 04:20:36;;;;;;;18.02;8.57;;;8.80;95.80;;;;;;5049758;28;20025;-77
2023/03/18 04:23:02;;;;;;;16.55;8.88;;;8.80;95.80;;;;;;5050672;28;20132;-76
2023/03/18 04:25:28;;;;;;;13.75;8.27;;;8.80;95.90;;;;;;5052254;28;20131;-77
2023/03/18 04:27:55;;;;;;;15.45;8.35;;;8.80;96.00;;;;;;5047941;28;20480;-77
2023/03/18 04:30:22;;;;;;;14.75;8.82;;;8.80;96.00;;;;;;5050619;28;20037;-75
2023/03/18 04:32:49;;;;;;;19.63;9.77;;;8.80;96.00;;;;;;5042883;28;20030;-77
2023/03/18 04:35:15;;;;;;;18.25;9.50;;;8.90;96.10;;;;;;5041724;28;20021;-78
2023/03/18 04:37:41;;;;;;;18.63;9.35;;;8.90;96.20;;;;;;5048578;28;20021;-76
2023/03/18 04:40:06;;;;;;;21.42;10.52;;;8.90;96.20;;;;;;5044829;28;20079;-76
2023/03/18 04:42:32;;;;;;;21.85;10.75;;;9.00;96.20;;;;;;5047783;28;20033;-76
2023/03/18 04:44:58;;;;;;;19.55;10.18;;;9.00;96.40;;;;;;5048668;28;20838;-73
2023/03/18 04:47:23;;;;;;;20.83;9.93;;;9.00;96.10;;;;;;5039043;28;20042;-76
2023/03/18 04:49:49;;;;;;;23.55;11.25;;;9.00;96.20;;;;;;5049399;28;20033;-72
2023/03/18 04:52:16;;;;;;;21.98;11.45;;;9.10;96.20;;;;;;5041164;28;20029;-76
2023/03/18 04:54:42;;;;;;;17.83;10.82;;;9.10;96.10;;;;;;5045707;28;20059;-73
2023/03/18 04:57:07;;;;;;;23.90;11.73;;;9.10;96.10;;;;;;5041822;28;20385;-76
2023/03/18 04:59:33;;;;;;;18.83;11.20;;;9.10;96.00;;;;;;5047775;28;20041;-76
2023/03/18 05:01:59;;;;;;;20.25;11.30;;;9.10;96.00;;;;;;5050499;28;20458;-77
2023/03/18 05:04:25;;;;;;;16.80;11.05;;;9.10;96.10;;;;;;5046066;28;20037;-76
2023/03/18 05:06:51;;;;;;;19.58;11.98;;;9.10;96.00;;;;;;5043348;28;20044;-77
2023/03/18 05:09:18;;;;;;;23.77;12.25;;;9.10;96.00;;;;;;5046691;28;20686;-77
2023/03/18 05:11:44;;;;;;;17.17;10.60;;;9.10;96.20;;;;;;5051852;28;20159;-75
2023/03/18 05:14:09;;;;;;;19.85;10.50;;;9.10;96.30;;;;;;5048094;28;20155;-75
2023/03/18 05:16:35;;;;;;;22.02;11.02;;;9.00;96.00;;;;;;5040407;28;20171;-72
2023/03/18 05:19:01;;;;;;;19.88;11.45;;;9.00;96.20;;;;;;5049893;28;20501;-75
2023/03/18 05:21:27;;;;;;;24.55;11.50;;;9.00;96.30;;;;;;5046841;28;20089;-76
2023/03/18 05:23:53;;;;;;;20.92;12.38;;;9.10;96.50;;;;;;5049624;28;20044;-73
2023/03/18 05:26:18;;;;;;;21.58;12.32;;;9.10;96.30;;;;;;5050808;28;20398;-73
2023/03/18 05:28:44;;;;;;;20.70;12.20;;;9.10;96.20;;;;;;5048134;28;20032;-79
2023/03/18 05:31:09;;;;;;;23.95;10.75;;;9.10;96.20;;;;;;5048577;28;20047;-79
2023/03/18 05:33:35;;;;;;;17.00;11.00;;;9.20;96.30;;;;;;5048316;28;20546;-75
2023/03/18 05:36:01;;;;;;;22.38;12.05;;;9.30;96.00;;;;;;5047511;28;20049;-73
2023/03/18 05:38:27;;;;;;;21.52;10.70;;;9.20;95.90;;;;;;5046166;28;20037;-73
2023/03/18 05:40:52;;;;;;;24.08;11.27;;;9.20;96.00;;;;;;5042578;28;20030;-73
2023/03/18 05:43:17;;;;;;;16.33;10.25;;;9.30;96.00;;;;;;5046881;28;20540;-74
2023/03/18 05:45:43;;;;;;;24.27;11.50;;;9.30;96.00;;;;;;5040126;28;20048;-73
2023/03/18 05:48:09;;;;;;;19.83;11.38;;;9.20;96.00;;;;;;5043583;28;20060;-73
2023/03/18 05:50:40;;;;;;;19.85;11.10;;;9.20;96.00;;;;;;5046351;28;20053;-72
2023/03/18 05:53:06;;;;;;;18.35;11.10;;;9.30;96.10;;;;;;5044503;28;20044;-72
2023/03/18 05:55:33;;;;;;;16.08;10.73;;;9.30;96.10;;;;;;5045166;28;20031;-78
2023/03/18 05:57:59;;;;;;;18.90;11.15;;;9.30;95.90;;;;;;5046524;28;20051;-78
2023/03/18 06:00:27;;;;;;;24.38;12.38;;;9.40;95.90;;;;;;5048085;28;20675;-77
2023/03/18 06:02:53;;;;;;;17.58;11.48;;;9.30;95.60;;;;;;5045054;28;20039;-77
2023/03/18 06:05:19;;;;;;;22.95;10.80;;;9.30;95.70;;;;;;5046116;28;20053;-76
2023/03/18 06:07:45;;;;;;;21.30;10.85;;;9.30;95.90;;;;;;5045680;28;20043;-77
2023/03/18 06:10:11;;;;;;;18.90;10.57;;;9.30;95.90;;;;;;5047609;28;20044;-76
2023/03/18 06:12:38;;;;;;;20.52;10.63;;;9.30;95.80;;;;;;5053677;28;20381;-78
2023/03/18 06:15:06;;;;;;;18.88;11.35;;;9.30;95.90;;;;;;5041426;28;20041;-79
2023/03/18 06:17:32;;;;;;;18.92;11.18;;;9.40;95.70;;;;;;5044757;28;20029;-76
2023/03/18 06:19:58;;;;;;;20.10;11.05;;;9.40;95.70;;;;;;5036769;28;20029;-78
2023/03/18 06:22:24;;;;;;;17.30;11.35;;;9.40;95.60;;;;;;5037950;28;20056;-75
2023/03/18 06:24:50;;;;;;;15.80;10.32;;;9.40;95.60;;;;;;5040421;28;20025;-76
2023/03/18 06:27:15;;;;;;;20.70;10.73;;;9.50;95.60;;;;;;5048438;28;20040;-76
2023/03/18 06:29:41;;;;;;;18.42;10.00;;;9.60;95.30;;;;;;5049847;28;20674;-75
2023/03/18 06:32:07;;;;;;;19.35;10.85;;;9.70;95.20;;;;;;5044124;28;20033;-74
2023/03/18 06:34:34;;;;;;;17.08;9.23;;;9.70;95.10;;;;;;5052040;28;20021;-75
2023/03/18 06:37:00;;;;;;;18.35;10.32;;;9.70;95.00;;;;;;5039879;28;20024;-75
2023/03/18 06:39:27;;;;;;;18.20;9.98;;;9.80;95.00;;;;;;5041903;28;20040;-74
2023/03/18 06:41:53;;;;;;;18.70;10.57;;;9.80;94.90;;;;;;5046611;28;20075;-75
2023/03/18 06:44:22;;;;;;;17.90;9.95;;;9.80;94.90;;;;;;5049508;28;20103;-75
2023/03/18 06:46:48;;;;;;;21.52;10.90;;;9.80;94.90;;;;;;5051239;28;20112;-76
2023/03/18 06:49:14;;;;;;;17.83;11.18;;;9.80;95.00;;;;;;5048313;28;20120;-75
2023/03/18 06:51:41;;;;;;;14.50;9.65;;;9.80;94.90;;;;;;5048413;28;20775;-75
2023/03/18 06:54:06;;;;;;;19.40;9.93;;;9.90;94.80;;;;;;5050653;28;20087;-75
2023/03/18 06:56:36;;;;;;;15.85;9.10;;;9.90;94.70;;;;;;5051491;28;20024;-74
2023/03/18 06:59:02;;;;;;;19.75;9.75;;;9.90;94.80;;;;;;5051588;28;20043;-75
2023/03/18 07:01:29;;;;;;;17.20;8.85;;;9.90;94.70;;;;;;5043484;28;20025;-75
2023/03/18 07:03:54;;;;;;;12.68;9.27;;;10.00;94.70;;;;;;5053008;28;20343;-77
2023/03/18 07:06:20;;;;;;;20.15;9.85;;;10.00;94.60;;;;;;5050576;28;20038;-72
2023/03/18 07:08:46;;;;;;;17.17;8.65;;;10.10;94.50;;;;;;5052406;28;20108;-73
2023/03/18 07:11:11;;;;;;;16.52;9.60;;;10.10;94.40;;;;;;5049151;28;20036;-75
2023/03/18 07:13:37;;;;;;;15.68;8.35;;;10.20;94.40;;;;;;5059529;28;20052;-74
2023/03/18 07:16:03;;;;;;;16.88;9.10;;;10.20;94.20;;;;;;5061149;28;20044;-76
2023/03/18 07:18:29;;;;;;;18.00;8.43;;;10.20;94.20;;;;;;5057086;28;20029;-77
2023/03/18 07:20:55;;;;;;;17.45;9.13;;;10.30;94.20;;;;;;5051046;28;20040;-76
2023/03/18 07:23:20;;;;;;;16.33;9.07;;;10.20;93.90;;;;;;5048871;28;20512;-77
2023/03/18 07:25:46;;;;;;;14.23;8.73;;;10.30;93.90;;;;;;5046987;28;20033;-76
2023/03/18 07:28:11;;;;;;;14.98;8.35;;;10.30;93.90;;;;;;5047733;28;20040;-75
2023/03/18 07:30:37;;;;;;;16.35;8.27;;;10.30;93.90;;;;;;5049285;28;20441;-74
2023/03/18 07:33:03;;;;;;;12.60;8.10;;;10.30;93.80;;;;;;5047358;28;20029;-75
2023/03/18 07:35:29;;;;;;;13.95;8.35;;;10.30;93.70;;;;;;5042588;28;20063;-75
2023/03/18 07:37:55;;;;;;;14.00;8.18;;;10.30;93.70;;;;;;5048554;28;20102;-75
2023/03/18 07:40:21;;;;;;;18.27;8.43;;;10.20;93.80;;;;;;5043555;28;20814;-76
2023/03/18 07:42:47;;;;;;;16.63;8.57;;;10.20;93.90;;;;;;5051071;28;20453;-75
2023/03/18 07:45:12;;;;;;;15.15;8.50;;;10.20;93.90;;;;;;5048004;28;20067;-74
2023/03/18 07:47:38;;;;;;;15.60;8.63;;;10.20;94.00;;;;;;5049651;28;20087;-75
2023/03/18 07:50:04;;;;;;;13.30;8.50;;;10.10;94.10;;;;;;5044508;28;20465;-75
2023/03/18 07:52:30;;;;;;;18.92;8.93;;;10.10;94.10;;;;;;5045734;28;20029;-75
2023/03/18 07:54:55;;;;;;;13.57;8.85;;;10.10;94.20;;;;;;5048776;28;20025;-75
2023/03/18 07:57:21;;;;;;;14.20;8.73;;;10.10;94.40;;;;;;5048011;28;20028;-74
2023/03/18 07:59:47;;;;;;;15.88;8.93;;;10.10;94.60;;;;;;5053770;28;20029;-75
2023/03/18 08:02:15;;;;;;;12.93;8.93;;;10.10;94.70;;;;;;5046396;28;20485;-75
2023/03/18 08:04:42;;;;;;;16.50;8.95;;;10.20;94.80;;;;;;5049479;28;20496;-74
2023/03/18 08:07:08;;;;;;;16.20;9.13;;;10.20;94.60;;;;;;5047850;28;20029;-76
2023/03/18 08:09:34;;;;;;;16.67;9.05;;;10.30;94.30;;;;;;5045439;28;20139;-75
2023/03/18 08:12:00;;;;;;;16.60;9.13;;;10.30;94.30;;;;;;5051081;28;20516;-75
2023/03/18 08:14:25;;;;;;;15.70;8.73;;;10.30;94.30;;;;;;5043668;28;20033;-75
2023/03/18 08:16:51;;;;;;;19.15;8.93;;;10.30;94.30;;;;;;5049202;28;20024;-74
2023/03/18 08:19:16;;;;;;;16.17;8.15;;;10.30;94.20;;;;;;5046476;28;20041;-76
2023/03/18 08:21:42;;;;;;;15.63;8.70;;;10.30;94.10;;;;;;5047978;28;20061;-72
2023/03/18 08:24:08;;;;;;;17.63;8.70;;;10.30;94.00;;;;;;5047597;28;20049;-75
2023/03/18 08:26:34;;;;;;;16.60;9.30;;;10.30;94.00;;;;;;5049861;28;20032;-75
2023/03/18 08:29:00;;;;;;;17.75;9.50;;;10.20;93.90;;;;;;5046749;28;20029;-75
2023/03/18 08:31:25;;;;;;;17.65;8.88;;;10.20;94.00;;;;;;5050916;28;20419;-76
2023/03/18 08:33:54;;;;;;;16.95;9.13;;;10.20;93.90;;;;;;5051521;28;20759;-75
2023/03/18 08:36:20;;;;;;;15.52;8.82;;;10.20;93.90;;;;;;5045387;28;20485;-72
2023/03/18 08:38:45;;;;;;;15.55;9.27;;;10.30;94.10;;;;;;5036134;28;20029;-75
2023/03/18 08:41:11;;;;;;;17.17;8.73;;;10.30;93.90;;;;;;5049038;28;20037;-74
2023/03/18 08:43:36;;;;;;;16.02;8.95;;;10.30;93.80;;;;;;5048017;28;20143;-75
2023/03/18 08:46:03;;;;;;;17.67;9.50;;;10.50;93.50;;;;;;5049055;28;20052;-74
2023/03/18 08:48:29;;;;;;;18.13;9.32;;;10.90;92.90;;;;;;5048390;28;20037;-76
2023/03/18 08:50:55;;;;;;;16.85;9.13;;;11.50;92.40;;;;;;5045986;28;20052;-76
2023/03/18 08:53:20;;;;;;;13.65;9.02;;;11.60;90.70;;;;;;5040853;28;20569;-76
2023/03/18 08:55:46;;;;;;;14.30;8.32;;;11.90;90.30;;;;;;5049603;28;20367;-75
2023/03/18 08:58:12;;;;;;;16.38;8.25;;;11.90;89.10;;;;;;5052644;28;20033;-75
2023/03/18 09:00:39;;;;;;;14.35;7.90;;;12.10;89.20;;;;;;5049440;28;20090;-75
2023/03/18 09:03:05;;;;;;;17.98;8.43;;;11.90;88.50;;;;;;5052478;28;20048;-75
2023/03/18 09:05:31;;;;;;;16.83;7.70;;;11.90;88.80;;;;;;5049584;28;20037;-74
2023/03/18 09:07:59;;;;;;;16.20;8.35;;;11.70;88.90;;;;;;5049385;28;20079;-75
2023/03/18 09:10:25;;;;;;;17.17;7.93;;;11.80;89.20;;;;;;5050458;28;20086;-75
2023/03/18 09:12:51;;;;;;;14.82;8.13;;;11.90;89.60;;;;;;5046057;28;20032;-75
2023/03/18 09:15:19;;;;;;;14.80;8.63;;;11.90;89.10;;;;;;5051724;28;20029;-75
2023/03/18 09:17:46;;;;;;;15.77;9.40;;;11.90;89.40;;;;;;5053385;28;20100;-74
2023/03/18 09:20:14;;;;;;;15.35;8.80;;;11.90;88.90;;;;;;5060665;28;20039;-74
2023/03/18 09:22:41;;;;;;;19.27;9.68;;;11.80;88.50;;;;;;5056466;28;20071;-75
2023/03/18 09:25:08;;;;;;;13.45;9.00;;;11.80;88.50;;;;;;5052283;28;20487;-74
2023/03/18 09:27:33;;;;;;;18.30;8.80;;;11.90;88.90;;;;;;5047280;28;20028;-75
2023/03/18 09:29:59;;;;;;;13.35;8.55;;;11.90;88.70;;;;;;5045935;28;20033;-75
2023/03/18 09:32:24;;;;;;;14.98;9.18;;;11.90;89.00;;;;;;5046569;28;20041;-75
2023/03/18 09:34:50;;;;;;;14.07;8.27;;;11.90;88.80;;;;;;5047920;28;20078;-76
2023/03/18 09:37:17;;;;;;;14.15;9.10;;;12.00;88.50;;;;;;5036090;28;20104;-75
2023/03/18 09:39:43;;;;;;;14.65;8.98;;;12.10;88.80;;;;;;5048558;28;20717;-74
2023/03/18 09:42:35;;;;;;;16.40;8.65;;;12.10;87.90;;;;;;5049089;28;20385;-75
2023/03/18 09:45:03;;;;;;;;;;;12.20;88.00;;;;;;5050870;28;20082;-76
2023/03/18 09:48:00;;;;;;;16.27;9.35;;;12.20;87.10;;;;;;5050311;28;19917;-75
2023/03/18 09:50:51;;;;;;;14.70;9.40;;;12.20;87.20;;;;;;5049173;28;20029;-75
2023/03/18 09:53:42;;;;;;;13.35;9.20;;;12.30;87.50;;;;;;5048111;28;20040;-74
2023/03/18 09:56:33;;;;;;;16.20;8.98;;;12.40;87.00;;;;;;5050554;28;20033;-75
2023/03/18 09:59:12;;;;;;;15.40;9.27;;;12.30;86.70;;;;;;5046727;28;20417;-75
2023/03/18 10:01:40;;;;;;;13.55;8.43;;;12.50;87.10;;;;;;5048500;28;20041;-75
2023/03/18 10:04:14;;;;;;;15.75;9.60;;;12.50;86.90;;;;;;5040285;28;20024;-75
2023/03/18 10:06:42;;;;;;;18.73;9.50;;;12.50;86.30;;;;;;5037653;28;20053;-74
2023/03/18 10:09:40;;;;;;;15.10;8.98;;;12.60;86.30;;;;;;5050954;28;20070;-75
2023/03/18 10:12:47;;;;;;;16.23;7.95;;;12.50;85.80;;;;;;5046193;28;20064;-75
2023/03/18 10:15:35;;;;;;;12.68;8.10;;;12.60;85.90;;;;;;5047059;28;20032;-75
2023/03/18 10:18:14;;;;;;;14.38;8.75;;;12.70;85.90;;;;;;5046838;28;20033;-74
2023/03/18 10:20:58;;;;;;;15.80;8.70;;;12.70;85.50;;;;;;5045151;28;20055;-75
2023/03/18 10:23:42;;;;;;;17.13;9.32;;;12.80;85.40;;;;;;5046107;28;20749;-76
2023/03/18 10:26:33;;;;;;;15.13;8.23;;;13.10;85.20;;;;;;5049998;28;20073;-75
2023/03/18 10:29:07;;;;;;;15.50;8.25;;;13.00;84.80;;;;;;5047577;28;20033;-74
2023/03/18 10:32:11;;;;;;;13.23;7.32;;;12.90;84.90;;;;;;5047931;28;20045;-75
2023/03/18 10:34:48;;;;;;;14.75;8.07;;;12.90;84.80;;;;;;5046987;28;20029;-74
2023/03/18 10:37:22;;;;;;;12.45;7.05;;;13.00;85.00;;;;;;5047544;28;20087;-74
2023/03/18 10:39:49;;;;;;;14.43;6.68;;;13.00;85.00;;;;;;5042061;28;20034;-72
2023/03/18 10:42:19;;;;;;;13.98;6.38;;;13.00;85.10;;;;;;5042070;28;20480;-75
2023/03/18 10:44:46;;;;;;;13.77;7.22;;;12.80;85.60;;;;;;5050277;28;20029;-75
2023/03/18 10:47:18;;;;;;;12.93;7.35;;;12.90;85.90;;;;;;5048378;28;20106;-75
2023/03/18 10:50:09;;;;;;;13.68;7.20;;;12.90;86.10;;;;;;5044854;28;20116;-74
2023/03/18 10:52:40;;;;;;;;;;;13.10;86.20;;;;;;5047318;28;20060;-75
2023/03/18 10:55:14;;;;;;;;;;;13.50;84.80;;;;;;5049184;28;19904;-75
2023/03/18 10:57:40;;;;;;;9.57;5.55;;;13.90;84.30;;;;;;5041626;28;19911;-75
2023/03/18 11:00:15;;;;;;;12.85;5.78;;;14.10;83.70;;;;;;5050428;28;20378;-75
2023/03/18 11:02:41;;;;;;;9.10;5.50;;;14.20;82.70;;;;;;5051446;28;20032;-74
2023/03/18 11:05:24;;;;;;;13.32;5.90;;;14.40;82.80;;;;;;5045153;28;20033;-75
2023/03/18 11:07:58;;;;;;;12.02;5.72;;;14.70;80.90;;;;;;5048372;28;20028;-73
2023/03/18 11:10:27;;;;;;;10.65;5.82;;;14.80;81.20;;;;;;5047602;28;20025;-75
2023/03/18 11:13:01;;;;;;;11.85;6.00;;;14.90;80.60;;;;;;5040864;28;20025;-75
2023/03/18 11:15:28;;;;;;;14.10;6.60;;;15.00;78.70;;;;;;5044767;28;20032;-74
2023/03/18 11:18:01;;;;;;;14.23;7.72;;;15.00;79.20;;;;;;5047569;28;20113;-76
2023/03/18 11:20:41;;;;;;;13.27;7.22;;;15.30;79.60;;;;;;5046107;28;20017;-75
2023/03/18 11:23:19;;;;;;;16.05;8.02;;;15.40;78.90;;;;;;5047064;28;20055;-77
2023/03/18 11:25:47;;;;;;;13.43;8.95;;;15.50;77.90;;;;;;5044697;28;20040;-75
2023/03/18 11:28:22;;;;;;;13.55;8.85;;;15.60;78.10;;;;;;5048251;28;20361;-76
2023/03/18 11:30:54;;;;;;;13.55;9.20;;;15.70;76.60;;;;;;5046895;28;20036;-77
2023/03/18 11:33:32;;;;;;;14.75;9.10;;;15.60;77.50;;;;;;5049680;28;20515;-76
2023/03/18 11:36:03;;;;;;;12.48;9.23;;;15.10;77.10;;;;;;5046865;28;20674;-76
2023/03/18 11:38:31;;;;;;;18.75;10.13;;;15.20;77.40;;;;;;5043698;28;20044;-75
2023/03/18 11:41:11;;;;;;;15.40;10.05;;;14.80;78.80;;;;;;5044861;28;20040;-76
2023/03/18 11:43:37;;;;;;;20.13;10.68;;;15.10;78.20;;;;;;5046565;28;20425;-75
2023/03/18 11:46:08;;;;;;;14.20;10.13;;;15.40;77.30;;;;;;5048082;28;20052;-76
2023/03/18 11:48:36;;;;;;;17.95;9.70;;;15.60;76.40;;;;;;5047330;28;20025;-76
2023/03/18 11:51:32;;;;;;;16.15;9.93;;;15.80;76.60;;;;;;5047179;28;20025;-76
2023/03/18 11:54:08;;;;;;;17.50;9.77;;;15.60;75.80;;;;;;5048944;28;20071;-74
2023/03/18 11:56:56;;;;;;;16.52;10.02;;;15.30;75.40;;;;;;5046963;28;20397;-76
2023/03/18 11:59:36;;;;;;;16.58;9.50;;;14.90;76.90;;;;;;5041976;28;20025;-74
2023/03/18 12:02:26;;;;;;;14.77;8.65;;;15.00;76.70;;;;;;5046004;28;20025;-75
2023/03/18 12:05:35;;;;;;;13.27;8.18;;;15.20;75.00;;;;;;5044280;28;20440;-75
2023/03/18 12:08:08;;;;;;;13.77;8.40;;;15.80;74.60;;;;;;5043165;28;20057;-75
2023/03/18 12:10:47;;;;;;;11.90;8.23;;;16.20;73.10;;;;;;5047292;28;20029;-75
2023/03/18 12:13:13;;;;;;;11.98;7.43;;;16.80;70.30;;;;;;5048638;28;22373;-74
2023/03/18 12:16:02;;;;;;;12.35;7.00;;;16.50;70.00;;;;;;5048871;28;20104;-75
2023/03/18 12:18:51;;;;;;;13.27;7.78;;;16.40;69.40;;;;;;5047965;28;20029;-75
2023/03/18 12:21:27;;;;;;;16.48;8.02;;;16.80;70.60;;;;;;5046855;28;20615;-75
2023/03/18 12:24:17;;;;;;;13.65;8.00;;;17.30;70.00;;;;;;5045865;28;20110;-75
2023/03/18 12:26:58;;;;;;;9.93;6.28;;;17.30;68.90;;;;;;5037432;28;20037;-75
2023/03/18 12:29:53;;;;;;;15.80;7.10;;;17.60;67.90;;;;;;5050957;28;20063;-75
2023/03/18 12:32:48;;;;;;;12.40;6.63;;;18.20;66.50;;;;;;5050434;28;20029;-75
2023/03/18 12:35:29;;;;;;;10.57;6.00;;;17.60;66.60;;;;;;5050180;28;20037;-75
2023/03/18 12:37:54;;;;;;;;;;;17.40;66.10;;;;;;5047518;28;20033;-75
2023/03/18 12:40:40;;;;;;;9.40;6.20;;;17.80;65.40;;;;;;5050578;28;19916;-75
2023/03/18 12:43:34;;;;;;;10.15;5.18;;;17.70;62.80;;;;;;5051726;28;20596;-75
2023/03/18 12:46:22;;;;;;;9.55;5.90;;;17.70;62.60;;;;;;5051587;28;20116;-76
2023/03/18 12:48:58;;;;;;;14.25;5.97;;;17.60;64.10;;;;;;5050634;28;20033;-75
2023/03/18 12:51:33;;;;;;;11.88;6.47;;;17.70;64.30;;;;;;5049948;28;20385;-74
2023/03/18 12:54:15;;;;;;;9.80;5.95;;;17.30;65.20;;;;;;5051595;28;20029;-75
2023/03/18 12:56:44;;;;;;;11.25;6.70;;;17.50;65.20;;;;;;5047847;28;20046;-75